Time;durP1;ratioP1;P1;durP2;ratioP2;P2;SDS_P1;SDS_P2;PMS_P1;PMS_P2;Temp;Humidity;BMP_temperature;BMP_pressure;BME280_temperature;BME280_humidity;BME280_pressure;Samples;Min_cycle;Max_cycle;Signal;HPM_P1;HPM_P2
2022/04/20 00:01:34;;;;;;;3.83;2.85;;;;;;;11.88;44.05;101282.81;3589235;39;20052;-63
2022/04/20 00:04:00;;;;;;;3.92;3.30;;;;;;;11.83;44.05;101280.38;3596167;39;20049;-63
2022/04/20 00:06:26;;;;;;;4.78;3.08;;;;;;;11.82;44.15;101286.69;3592997;39;20067;-64
2022/04/20 00:08:52;;;;;;;4.18;3.05;;;;;;;11.78;44.28;101279.78;3589726;39;20130;-63
2022/04/20 00:11:17;;;;;;;3.17;2.97;;;;;;;11.72;45.17;101280.13;3590292;39;20114;-63
2022/04/20 00:13:43;;;;;;;5.18;3.22;;;;;;;11.55;45.28;101262.28;3576825;39;20066;-63
2022/04/20 00:16:08;;;;;;;4.35;3.13;;;;;;;11.62;45.49;101276.25;3581722;39;20047;-63
2022/04/20 00:18:34;;;;;;;4.82;3.40;;;;;;;11.54;45.13;101263.22;3592783;39;20096;-64
2022/04/20 00:20:59;;;;;;;3.42;3.00;;;;;;;11.56;45.20;101287.38;3593890;39;20066;-64
2022/04/20 00:23:25;;;;;;;3.55;3.25;;;;;;;11.53;44.98;101285.72;3593701;39;20445;-64
2022/04/20 00:25:50;;;;;;;3.78;3.20;;;;;;;11.41;46.00;101274.81;3586867;39;20661;-64
2022/04/20 00:28:16;;;;;;;5.00;3.28;;;;;;;11.42;45.32;101287.31;3593122;39;20072;-64
2022/04/20 00:30:42;;;;;;;5.05;3.63;;;;;;;11.42;45.83;101290.00;3581348;39;20058;-63
2022/04/20 00:33:07;;;;;;;4.78;3.40;;;;;;;11.38;45.88;101282.13;3577748;39;20474;-63
2022/04/20 00:35:33;;;;;;;3.88;3.50;;;;;;;11.33;46.13;101283.34;3591871;39;20375;-62
2022/04/20 00:37:59;;;;;;;3.67;3.33;;;;;;;11.23;46.83;101277.63;3589125;39;20076;-64
2022/04/20 00:40:25;;;;;;;5.65;3.10;;;;;;;11.25;46.19;101293.69;3587297;39;20071;-64
2022/04/20 00:42:51;;;;;;;10.02;3.70;;;;;;;11.23;46.33;101288.41;3591972;39;20657;-64
2022/04/20 00:45:17;;;;;;;3.58;3.28;;;;;;;11.17;46.50;101294.13;3582330;39;20059;-64
2022/04/20 00:47:43;;;;;;;4.65;3.28;;;;;;;11.11;47.51;101292.63;3590388;39;20092;-64
2022/04/20 00:50:11;;;;;;;5.00;3.47;;;;;;;11.07;47.48;101292.91;3590156;39;20166;-64
2022/04/20 00:52:38;;;;;;;5.68;3.30;;;;;;;10.91;46.77;101277.63;3590753;39;20044;-63
2022/04/20 00:55:05;;;;;;;5.40;3.40;;;;;;;10.98;46.94;101291.59;3591270;39;20381;-64
2022/04/20 00:57:32;;;;;;;4.40;3.67;;;;;;;10.97;47.14;101300.59;3583748;39;20040;-63
2022/04/20 01:00:01;;;;;;;5.05;3.30;;;;;;;10.88;47.42;101283.19;3589572;39;20454;-64
2022/04/20 01:02:28;;;;;;;5.50;3.65;;;;;;;10.91;47.91;101292.91;3581665;39;20098;-63
2022/04/20 01:04:54;;;;;;;4.72;3.40;;;;;;;10.85;47.35;101293.25;3589292;39;20127;-63
2022/04/20 01:07:22;;;;;;;5.18;3.40;;;;;;;10.84;47.73;101294.19;3591467;39;20111;-64
2022/04/20 01:09:48;;;;;;;4.05;3.25;;;;;;;10.82;48.00;101291.59;3591052;39;20133;-63
2022/04/20 01:12:18;;;;;;;4.05;3.53;;;;;;;10.76;47.57;101297.31;3585599;39;20217;-63
2022/04/20 01:14:44;;;;;;;4.38;3.28;;;;;;;10.71;47.39;101298.50;3590422;39;20520;-63
2022/04/20 01:17:10;;;;;;;3.90;3.30;;;;;;;10.65;47.55;101297.00;3582184;39;20125;-63
2022/04/20 01:19:39;;;;;;;4.68;3.63;;;;;;;10.58;47.64;101295.63;3592990;39;20080;-63
2022/04/20 01:22:07;;;;;;;4.45;3.28;;;;;;;10.59;47.80;101297.34;3593743;39;20107;-63
2022/04/20 01:24:35;;;;;;;4.43;3.53;;;;;;;10.38;47.81;101270.69;3595645;39;20052;-63
2022/04/20 01:27:02;;;;;;;5.10;3.50;;;;;;;10.52;47.62;101298.63;3591778;39;20075;-64
2022/04/20 01:29:29;;;;;;;5.95;3.63;;;;;;;10.49;47.97;101296.09;3585216;39;20055;-63
2022/04/20 01:31:56;;;;;;;3.88;3.47;;;;;;;10.48;48.54;101303.31;3579439;39;20743;-63
2022/04/20 01:34:22;;;;;;;4.72;3.30;;;;;;;10.44;48.00;101305.31;3584532;39;20093;-62
2022/04/20 01:36:49;;;;;;;5.53;3.60;;;;;;;10.31;48.34;101282.72;3594560;39;20044;-63
2022/04/20 01:39:15;;;;;;;7.18;3.60;;;;;;;10.29;48.31;101287.31;3594960;39;20150;-63
2022/04/20 01:41:42;;;;;;;5.55;3.50;;;;;;;10.37;48.81;101303.91;3590292;39;20048;-63
2022/04/20 01:44:08;;;;;;;5.07;3.28;;;;;;;10.34;48.10;101303.16;3585713;39;20055;-63
2022/04/20 01:46:33;;;;;;;4.95;4.13;;;;;;;10.30;48.65;101304.28;3590936;39;20059;-63
2022/04/20 01:48:59;;;;;;;4.90;4.03;;;;;;;10.25;48.69;101309.03;3579147;39;20117;-64
2022/04/20 01:54:11;;;;;;;5.50;3.90;;;;;;;10.08;49.08;101291.94;3593034;39;20100;-63
2022/04/20 01:56:36;;;;;;;3.78;3.35;;;;;;;10.10;49.54;101302.63;3590665;39;20052;-63
2022/04/20 01:59:02;;;;;;;4.75;3.75;;;;;;;10.04;48.27;101289.50;3585027;39;20050;-64
2022/04/20 02:04:12;;;;;;;5.75;3.90;;;;;;;9.95;49.22;101294.41;3585855;39;20067;-64
2022/04/20 02:06:38;;;;;;;5.60;4.00;;;;;;;9.94;49.10;101306.09;3591399;39;20051;-63
2022/04/20 02:09:04;;;;;;;6.50;4.20;;;;;;;9.90;49.00;101296.47;3591639;39;20059;-64
2022/04/20 02:11:30;;;;;;;4.38;3.75;;;;;;;9.87;49.81;101298.44;3594637;39;20070;-63
2022/04/20 02:13:58;;;;;;;4.25;3.85;;;;;;;9.81;48.88;101296.09;3588482;39;20066;-64
2022/04/20 02:16:23;;;;;;;5.82;3.80;;;;;;;9.82;50.05;101295.97;3595009;39;20056;-65
2022/04/20 02:18:49;;;;;;;6.00;3.80;;;;;;;9.81;49.89;101296.94;3583395;39;20051;-63
2022/04/20 02:21:15;;;;;;;4.43;3.90;;;;;;;9.78;49.64;101297.09;3585355;39;20075;-63
2022/04/20 02:23:41;;;;;;;7.25;4.38;;;;;;;9.73;49.28;101296.44;3591389;39;20055;-63
2022/04/20 02:26:06;;;;;;;4.80;3.60;;;;;;;9.67;49.21;101299.44;3592512;39;20055;-63
2022/04/20 02:28:32;;;;;;;5.38;3.88;;;;;;;9.62;49.99;101293.47;3591808;39;20059;-63
2022/04/20 02:30:57;;;;;;;4.38;3.65;;;;;;;9.58;49.99;101289.16;3589717;39;20089;-63
2022/04/20 02:33:23;;;;;;;4.10;3.67;;;;;;;9.51;49.85;101292.19;3581204;39;20167;-63
2022/04/20 02:35:49;;;;;;;5.13;3.75;;;;;;;9.48;50.42;101302.19;3582335;39;20047;-66
2022/04/20 02:38:17;;;;;;;6.32;3.85;;;;;;;9.30;50.50;101277.16;3594440;39;20449;-64
2022/04/20 02:40:43;;;;;;;4.75;3.85;;;;;;;9.36;50.82;101290.25;3593126;39;20058;-64
2022/04/20 02:43:09;;;;;;;5.30;3.90;;;;;;;9.36;50.19;101300.13;3594737;39;20087;-64
2022/04/20 02:45:36;;;;;;;6.00;3.97;;;;;;;9.29;50.64;101297.75;3588742;39;20051;-63
2022/04/20 02:48:02;;;;;;;5.20;4.55;;;;;;;9.24;50.53;101298.91;3595704;39;20078;-63
2022/04/20 02:50:28;;;;;;;4.15;3.75;;;;;;;8.72;50.18;101215.59;3582765;39;20398;-63
2022/04/20 02:52:55;;;;;;;5.30;4.03;;;;;;;9.19;50.62;101304.47;3585305;39;20051;-62
2022/04/20 02:55:21;;;;;;;6.10;4.13;;;;;;;9.18;50.89;101304.56;3594611;39;20287;-63
2022/04/20 02:57:47;;;;;;;5.32;3.70;;;;;;;9.17;50.38;101310.88;3591032;39;20066;-63
2022/04/20 03:00:15;;;;;;;5.05;3.78;;;;;;;9.14;51.47;101313.72;3596977;39;20071;-63
2022/04/20 03:02:41;;;;;;;5.53;3.72;;;;;;;9.02;50.77;101291.03;3586305;39;20105;-63
2022/04/20 03:05:08;;;;;;;7.80;4.05;;;;;;;9.10;51.25;101317.47;3581316;39;20306;-63
2022/04/20 03:07:33;;;;;;;4.88;3.88;;;;;;;9.05;51.50;101318.56;3582120;39;20048;-64
2022/04/20 03:09:59;;;;;;;7.47;3.97;;;;;;;8.99;50.63;101310.81;3584585;39;20508;-64
2022/04/20 03:12:24;;;;;;;7.15;4.18;;;;;;;8.76;50.51;101273.50;3592577;39;20075;-64
2022/04/20 03:14:54;;;;;;;4.05;3.65;;;;;;;8.98;51.44;101314.44;3590505;39;20051;-64
2022/04/20 03:17:21;;;;;;;5.75;4.05;;;;;;;8.99;51.10;101316.16;3586895;39;20047;-64
2022/04/20 03:19:47;;;;;;;7.68;4.03;;;;;;;8.96;51.39;101307.41;3580082;39;20128;-64
2022/04/20 03:22:13;;;;;;;5.35;3.80;;;;;;;8.93;51.51;101310.22;3588795;39;20067;-63
2022/04/20 03:24:38;;;;;;;7.25;3.92;;;;;;;8.92;51.42;101320.09;3590951;39;20047;-63
2022/04/20 03:27:04;;;;;;;4.95;3.90;;;;;;;8.93;51.52;101320.97;3585689;39;20059;-63
2022/04/20 03:29:30;;;;;;;5.45;4.38;;;;;;;8.85;51.13;101313.28;3584475;39;20075;-64
2022/04/20 03:31:56;;;;;;;6.30;4.22;;;;;;;8.92;50.89;101329.94;3589192;39;20143;-64
2022/04/20 03:34:22;;;;;;;7.38;4.45;;;;;;;8.91;50.92;101318.38;3596784;39;20067;-64
2022/04/20 03:36:48;;;;;;;6.57;4.38;;;;;;;8.94;51.05;101330.72;3577828;39;20062;-62
2022/04/20 03:39:14;;;;;;;6.85;4.55;;;;;;;8.96;50.73;101331.53;3590256;39;20058;-63
2022/04/20 03:41:39;;;;;;;5.05;4.00;;;;;;;8.94;50.89;101334.28;3593343;39;20059;-64
2022/04/20 03:44:06;;;;;;;8.77;4.20;;;;;;;8.95;50.59;101336.03;3599523;39;20090;-63
2022/04/20 03:46:32;;;;;;;8.40;4.53;;;;;;;8.92;50.71;101338.84;3588583;39;20178;-62
2022/04/20 03:48:57;;;;;;;6.65;4.63;;;;;;;8.81;50.92;101319.72;3581240;39;20051;-62
2022/04/20 03:51:23;;;;;;;4.78;4.22;;;;;;;8.78;51.10;101322.53;3616875;22;20054;-65
2022/04/20 03:53:48;;;;;;;5.75;4.10;;;;;;;8.86;50.88;101330.22;3590312;39;20063;-65
2022/04/20 03:56:14;;;;;;;4.45;4.05;;;;;;;8.79;51.23;101324.28;3594240;39;20051;-66
2022/04/20 03:58:39;;;;;;;5.95;3.92;;;;;;;8.79;50.78;101324.28;3591949;39;20104;-66
2022/04/20 04:01:05;;;;;;;6.38;4.32;;;;;;;8.82;50.85;101334.88;3591623;39;20060;-66
2022/04/20 04:03:31;;;;;;;4.93;4.07;;;;;;;8.73;50.83;101324.56;3580826;39;20060;-66
2022/04/20 04:05:57;;;;;;;6.25;4.28;;;;;;;8.82;51.66;101345.59;3577203;39;20152;-67
2022/04/20 04:08:23;;;;;;;6.28;4.22;;;;;;;8.79;50.73;101340.38;3587178;39;20066;-67
2022/04/20 04:10:50;;;;;;;5.90;4.10;;;;;;;8.78;51.04;101343.97;3582649;39;20064;-67
2022/04/20 04:13:17;;;;;;;8.05;4.10;;;;;;;8.65;51.25;101318.69;3582963;39;20050;-66
2022/04/20 04:15:43;;;;;;;5.18;4.28;;;;;;;8.74;51.16;101339.69;3586242;39;20713;-65
2022/04/20 04:18:09;;;;;;;5.32;3.83;;;;;;;8.76;50.87;101340.50;3585301;39;20045;-65
2022/04/20 04:20:35;;;;;;;6.82;4.15;;;;;;;8.69;51.47;101333.66;3564330;39;20090;-66
2022/04/20 04:23:01;;;;;;;6.20;4.15;;;;;;;8.74;51.07;101347.75;3588746;39;20082;-66
2022/04/20 04:25:27;;;;;;;4.38;3.97;;;;;;;7.97;51.41;101216.38;3587474;39;20075;-67
2022/04/20 04:27:52;;;;;;;4.75;3.63;;;;;;;8.57;51.62;101325.28;3587997;39;20053;-65
2022/04/20 04:30:18;;;;;;;6.55;4.10;;;;;;;8.72;50.68;101363.00;3588507;39;20056;-66
2022/04/20 04:32:44;;;;;;;6.20;4.43;;;;;;;8.69;51.65;101355.13;3586358;39;20662;-65
2022/04/20 04:35:10;;;;;;;6.57;4.28;;;;;;;8.64;51.63;101358.00;3574716;39;20125;-65
2022/04/20 04:37:35;;;;;;;7.35;4.63;;;;;;;8.53;51.51;101338.84;3590992;39;20051;-66
2022/04/20 04:40:02;;;;;;;7.80;4.50;;;;;;;8.57;51.52;101357.44;3588024;39;20275;-66
2022/04/20 04:42:28;;;;;;;6.25;4.75;;;;;;;8.55;51.69;101353.06;3587349;39;20067;-66
2022/04/20 04:44:54;;;;;;;7.93;5.00;;;;;;;8.59;52.30;101368.97;3583382;39;20048;-66
2022/04/20 04:50:04;;;;;;;8.90;4.95;;;;;;;8.58;51.97;101377.06;3580943;39;20137;-65
2022/04/20 04:52:31;;;;;;;6.53;4.85;;;;;;;8.22;51.87;101312.56;3576333;39;20337;-65
2022/04/20 04:54:57;;;;;;;7.55;4.85;;;;;;;8.56;52.28;101382.50;3583745;39;20117;-64
2022/04/20 04:57:22;;;;;;;5.68;4.43;;;;;;;8.53;51.83;101387.09;3591101;39;20454;-65
2022/04/20 04:59:48;;;;;;;6.93;4.50;;;;;;;8.56;52.37;101386.94;3585105;39;20062;-66
2022/04/20 05:02:13;;;;;;;8.18;4.15;;;;;;;8.58;51.99;101388.63;3586341;39;20063;-65
2022/04/20 05:04:40;;;;;;;6.53;4.43;;;;;;;8.58;51.88;101385.94;3580196;39;20055;-64
2022/04/20 05:07:06;;;;;;;6.10;4.50;;;;;;;8.45;51.72;101363.31;3578371;39;20129;-64
2022/04/20 05:09:32;;;;;;;8.45;4.55;;;;;;;8.51;52.36;101362.19;3585774;39;20056;-65
2022/04/20 05:11:58;;;;;;;7.07;4.05;;;;;;;8.62;52.31;101385.81;3585400;39;20781;-65
2022/04/20 05:14:24;;;;;;;6.97;4.30;;;;;;;8.68;51.63;101385.53;3588645;39;20304;-64
2022/04/20 05:16:50;;;;;;;7.80;4.45;;;;;;;8.66;51.74;101382.06;3586999;39;20667;-65
2022/04/20 05:19:16;;;;;;;5.65;4.22;;;;;;;8.71;51.96;101383.59;3589144;39;20132;-65
2022/04/20 05:21:42;;;;;;;8.10;4.47;;;;;;;8.75;51.55;101381.63;3580936;39;20064;-66
2022/04/20 05:24:08;;;;;;;6.30;4.20;;;;;;;8.65;51.50;101358.88;3579277;39;20076;-64
2022/04/20 05:26:33;;;;;;;9.15;5.10;;;;;;;8.83;51.59;101379.50;3583019;39;20064;-65
2022/04/20 05:28:59;;;;;;;6.53;4.60;;;;;;;8.96;51.27;101391.38;3588274;39;20144;-65
2022/04/20 05:31:24;;;;;;;8.25;4.93;;;;;;;9.04;51.15;101389.25;3586889;39;20048;-67
2022/04/20 05:33:50;;;;;;;8.00;4.55;;;;;;;9.07;50.54;101383.72;3582239;39;20062;-64
2022/04/20 05:36:18;;;;;;;9.60;4.65;;;;;;;9.21;50.06;101396.47;3581082;39;20421;-65
2022/04/20 05:41:40;;;;;;;8.13;4.95;;;;;;;9.31;50.41;101386.19;3587438;39;20063;-65
2022/04/20 05:44:11;;;;;;;8.18;4.78;;;;;;;9.46;49.75;101401.56;3585708;39;20040;-65
2022/04/20 05:46:38;;;;;;;11.68;8.68;;;;;;;9.30;49.41;101371.03;3585694;39;20368;-66
2022/04/20 05:49:04;;;;;;;8.60;6.18;;;;;;;9.54;50.17;101403.84;3585782;39;20048;-65
2022/04/20 05:51:30;;;;;;;6.30;4.97;;;;;;;9.06;49.07;101317.59;3582201;39;20071;-65
2022/04/20 05:53:56;;;;;;;6.57;4.60;;;;;;;9.49;49.82;101388.00;3582849;39;20054;-64
2022/04/20 05:56:21;;;;;;;5.63;4.75;;;;;;;9.61;49.30;101394.59;3578255;39;20087;-64
2022/04/20 05:58:50;;;;;;;20.23;11.45;;;;;;;9.67;49.09;101404.13;3585233;39;20141;-65
2022/04/20 06:01:17;;;;;;;11.25;6.50;;;;;;;9.67;48.64;101393.41;3576550;39;20437;-66
2022/04/20 06:03:42;;;;;;;7.00;4.93;;;;;;;9.73;49.29;101399.34;3586683;39;20051;-65
2022/04/20 06:06:08;;;;;;;7.45;4.70;;;;;;;9.68;48.84;101379.06;3587847;39;20129;-65
2022/04/20 06:08:34;;;;;;;6.60;4.85;;;;;;;9.87;48.98;101393.31;3580982;39;20058;-65
2022/04/20 06:11:00;;;;;;;6.32;4.70;;;;;;;9.91;48.58;101392.19;3576717;39;20830;-66
2022/04/20 06:13:27;;;;;;;6.38;4.78;;;;;;;9.68;49.17;101336.09;3585734;39;20712;-65
2022/04/20 06:15:54;;;;;;;12.48;4.90;;;;;;;10.13;48.16;101396.50;3584103;39;20051;-65
2022/04/20 06:18:20;;;;;;;9.55;4.93;;;;;;;10.18;47.97;101400.69;3586123;39;20056;-65
2022/04/20 06:20:45;;;;;;;9.75;4.60;;;;;;;10.25;47.91;101401.25;3582277;39;20453;-67
2022/04/20 06:23:11;;;;;;;10.25;4.88;;;;;;;10.34;48.48;101400.81;3578740;39;20059;-66
2022/04/20 06:25:37;;;;;;;6.00;4.50;;;;;;;10.40;46.82;101395.13;3585926;39;20063;-66
2022/04/20 06:28:03;;;;;;;6.65;4.38;;;;;;;10.35;46.54;101380.16;3575156;39;20056;-65
2022/04/20 06:30:28;;;;;;;9.43;4.82;;;;;;;10.55;47.27;101397.94;3586082;39;20088;-66
2022/04/20 06:32:54;;;;;;;11.80;4.45;;;;;;;10.71;47.02;101404.22;3584459;39;20582;-65
2022/04/20 06:35:20;;;;;;;6.60;4.18;;;;;;;10.86;46.67;101403.41;3587707;39;20359;-66
2022/04/20 06:37:45;;;;;;;8.02;5.03;;;;;;;11.13;46.05;101402.84;3578372;39;20127;-65
2022/04/20 06:40:11;;;;;;;9.60;4.72;;;;;;;11.32;45.22;101379.38;3583820;39;20059;-66
2022/04/20 06:42:37;;;;;;;9.52;4.72;;;;;;;11.59;44.60;101376.06;3574994;39;20409;-66
2022/04/20 06:45:03;;;;;;;6.55;4.35;;;;;;;12.14;44.10;101410.59;3582450;39;20052;-65
2022/04/20 06:47:29;;;;;;;6.95;4.78;;;;;;;12.45;42.99;101412.31;3575677;39;20070;-65
2022/04/20 06:49:55;;;;;;;9.88;4.75;;;;;;;12.72;42.52;101417.88;3584622;39;20068;-66
2022/04/20 07:00:35;;;;;;;7.15;4.82;;;;;;;13.82;39.69;101406.44;3584439;39;20075;-67
2022/04/20 07:03:03;;;;;;;6.95;4.38;;;;;;;13.99;40.08;101410.75;3584967;39;20714;-66
2022/04/20 07:05:28;;;;;;;11.73;4.50;;;;;;;14.11;39.96;101388.25;3585937;39;20048;-65
2022/04/20 07:07:54;;;;;;;9.45;4.30;;;;;;;14.50;39.08;101411.72;3581720;39;20058;-66
2022/04/20 07:10:19;;;;;;;8.60;4.30;;;;;;;14.78;38.35;101410.72;3581756;39;20104;-66
2022/04/20 07:12:45;;;;;;;9.75;4.90;;;;;;;14.93;38.25;101406.03;3585481;39;20119;-66
2022/04/20 07:15:11;;;;;;;6.65;4.65;;;;;;;15.02;38.04;101408.09;3578138;39;20063;-65
2022/04/20 07:17:36;;;;;;;5.82;4.22;;;;;;;15.06;37.63;101398.81;3585865;39;20048;-67
2022/04/20 07:20:03;;;;;;;8.20;4.20;;;;;;;15.20;36.76;101407.75;3584445;39;20082;-66
2022/04/20 07:22:29;;;;;;;5.88;3.90;;;;;;;15.43;37.43;101411.50;3586400;39;20072;-66
2022/04/20 07:24:55;;;;;;;5.88;4.35;;;;;;;15.49;36.61;101403.78;3576620;39;20386;-65
2022/04/20 07:27:20;;;;;;;6.95;4.85;;;;;;;15.66;35.60;101401.69;3582845;39;20050;-66
2022/04/20 07:29:46;;;;;;;9.05;4.95;;;;;;;15.93;35.20;101405.09;3576530;39;20074;-66
2022/04/20 07:32:11;;;;;;;6.90;5.10;;;;;;;16.01;34.79;101391.78;3582401;39;20080;-67
2022/04/20 07:34:37;;;;;;;6.63;4.80;;;;;;;16.30;35.68;101402.31;3582383;39;20043;-66
2022/04/20 07:37:03;;;;;;;6.40;4.38;;;;;;;16.52;34.41;101406.03;3586050;39;20055;-65
2022/04/20 07:39:29;;;;;;;7.18;4.32;;;;;;;16.54;34.05;101410.38;3581246;39;20249;-65
2022/04/20 07:41:54;;;;;;;5.50;4.00;;;;;;;16.64;34.86;101415.94;3575714;39;20048;-66
2022/04/20 07:44:20;;;;;;;5.80;3.65;;;;;;;16.63;34.72;101416.94;3581443;39;20048;-67
2022/04/20 07:46:46;;;;;;;6.25;3.72;;;;;;;16.78;34.21;101401.31;3575911;39;20048;-66
2022/04/20 07:51:56;;;;;;;9.07;4.18;;;;;;;17.04;33.52;101407.44;3585640;39;20054;-67
2022/04/20 07:54:21;;;;;;;5.45;4.10;;;;;;;17.18;33.30;101421.59;3582639;39;20059;-67
2022/04/20 07:56:47;;;;;;;9.63;4.00;;;;;;;17.26;33.35;101429.16;3577252;39;20063;-65
2022/04/20 07:59:13;;;;;;;5.78;4.05;;;;;;;17.03;32.87;101373.06;3581856;39;20064;-66
2022/04/20 08:01:38;;;;;;;9.50;4.13;;;;;;;17.55;32.30;101432.22;3574066;39;20043;-66
2022/04/20 08:04:05;;;;;;;7.32;4.65;;;;;;;17.81;33.42;101424.69;3582419;39;20496;-66
2022/04/20 08:06:31;;;;;;;11.65;5.13;;;;;;;17.93;31.92;101421.94;3582887;39;20059;-66
2022/04/20 08:08:56;;;;;;;11.35;4.72;;;;;;;18.05;32.32;101426.38;3582814;39;20375;-66
2022/04/20 08:11:22;;;;;;;9.65;4.32;;;;;;;18.10;32.09;101429.53;3584368;39;20063;-65
2022/04/20 08:16:31;;;;;;;;;;;;;;;18.35;31.97;101425.59;3574557;39;20202;-65
2022/04/20 08:18:57;;;;;;;6.32;4.13;;;;;;;18.56;30.83;101425.66;3583071;39;19971;-65
2022/04/20 08:21:22;;;;;;;7.57;4.72;;;;;;;18.66;31.00;101429.28;3580232;39;20060;-66
2022/04/20 08:23:48;;;;;;;8.30;4.18;;;;;;;18.62;30.67;101419.66;3586386;39;20157;-66
2022/04/20 08:26:15;;;;;;;7.05;4.18;;;;;;;18.67;30.65;101422.84;3585974;39;20059;-68
2022/04/20 08:28:40;;;;;;;7.75;4.43;;;;;;;18.60;30.07;101383.53;3579214;39;20074;-66
2022/04/20 08:31:06;;;;;;;7.60;4.07;;;;;;;18.94;31.99;101426.94;3585952;39;20048;-67
2022/04/20 08:33:33;;;;;;;9.32;4.50;;;;;;;18.97;30.11;101421.22;3577900;39;20068;-66
2022/04/20 08:35:59;;;;;;;8.15;4.35;;;;;;;19.31;30.61;101438.16;3578195;40;20062;-67
2022/04/20 08:38:25;;;;;;;5.78;4.30;;;;;;;19.38;29.81;101436.63;3588160;39;20067;-68
2022/04/20 08:40:54;;;;;;;5.97;4.10;;;;;;;19.37;29.42;101409.47;3586303;39;20056;-67
2022/04/20 08:43:20;;;;;;;5.55;4.15;;;;;;;19.53;29.69;101430.78;3583324;39;20064;-67
2022/04/20 08:45:52;;;;;;;7.00;4.18;;;;;;;19.52;29.62;101432.66;3584328;39;20378;-66
2022/04/20 08:48:18;;;;;;;6.47;4.28;;;;;;;19.62;30.84;101419.03;3574568;39;20071;-67
2022/04/20 08:50:45;;;;;;;5.28;4.10;;;;;;;19.71;29.82;101413.63;3586921;39;20327;-66
2022/04/20 08:53:11;;;;;;;6.82;4.53;;;;;;;19.86;28.97;101415.97;3585174;39;20141;-66
2022/04/20 08:55:37;;;;;;;5.22;4.13;;;;;;;19.88;28.12;101414.81;3587950;39;20724;-66
2022/04/20 08:58:07;;;;;;;7.82;4.47;;;;;;;19.93;29.13;101411.69;3588653;39;20052;-66
2022/04/20 09:00:33;;;;;;;6.05;4.40;;;;;;;20.30;28.20;101413.72;3580324;39;20067;-66
2022/04/20 09:03:01;;;;;;;5.10;3.50;;;;;;;20.05;28.16;101416.00;3569444;39;20054;-66
2022/04/20 09:05:30;;;;;;;5.85;4.05;;;;;;;20.28;29.42;101415.72;3589920;39;20117;-66
2022/04/20 09:07:57;;;;;;;6.70;4.75;;;;;;;20.47;27.56;101410.25;3585532;39;20058;-65
2022/04/20 09:10:23;;;;;;;6.32;4.47;;;;;;;20.61;27.51;101417.16;3584450;39;20059;-66
2022/04/20 09:13:11;;;;;;;6.32;3.80;;;;;;;20.48;27.21;101401.03;3585915;39;20095;-66
2022/04/20 09:15:39;;;;;;;5.10;4.03;;;;;;;20.54;27.04;101411.41;3577890;39;20083;-66
2022/04/20 09:18:08;;;;;;;7.45;4.50;;;;;;;20.42;27.39;101390.69;3575415;39;20064;-66
2022/04/20 09:20:35;;;;;;;7.68;4.40;;;;;;;20.82;28.18;101404.19;3575834;39;20063;-66
2022/04/20 09:23:01;;;;;;;7.70;4.13;;;;;;;21.24;25.63;101411.97;3582871;39;20056;-66
2022/04/20 09:25:38;;;;;;;5.25;3.97;;;;;;;21.31;27.59;101399.44;3583775;39;20051;-66
2022/04/20 09:28:07;;;;;;;6.35;4.00;;;;;;;21.40;26.96;101419.56;3585184;39;20048;-66
2022/04/20 09:30:40;;;;;;;6.35;4.00;;;;;;;21.52;27.41;101404.66;3576255;39;21123;-66
2022/04/20 09:33:07;;;;;;;4.57;3.28;;;;;;;21.47;25.19;101404.28;3582179;39;20067;-67
2022/04/20 09:35:53;;;;;;;9.63;3.50;;;;;;;21.68;25.50;101405.88;3574982;39;20136;-67
2022/04/20 09:38:21;;;;;;;5.93;3.78;;;;;;;21.74;24.36;101399.81;3580371;39;20145;-67
2022/04/20 09:40:48;;;;;;;5.18;3.65;;;;;;;21.87;24.34;101393.97;3582631;39;20075;-66
2022/04/20 09:43:17;;;;;;;7.55;3.53;;;;;;;21.37;25.08;101320.53;3584942;39;20044;-67
2022/04/20 09:45:43;;;;;;;4.13;3.20;;;;;;;21.84;24.41;101386.91;3585103;39;20129;-67
2022/04/20 09:53:44;;;;;;;4.80;2.95;;;;;;;21.83;25.33;101368.78;3591935;39;20121;-61
2022/04/20 09:56:22;;;;;;;6.53;3.15;;;;;;;21.85;25.41;101355.81;3586470;39;20051;-61
2022/04/20 09:58:59;;;;;;;3.58;2.72;;;;;;;21.70;24.18;101379.25;3594114;39;20067;-61
2022/04/20 10:01:47;;;;;;;7.82;3.10;;;;;;;21.58;24.77;101388.66;3585194;39;20409;-61
2022/04/20 10:04:15;;;;;;;6.75;3.40;;;;;;;21.56;25.09;101386.94;3578719;39;20043;-61
2022/04/20 10:06:43;;;;;;;3.63;2.72;;;;;;;21.81;25.02;101384.47;3583806;39;20772;-62
2022/04/20 10:09:09;;;;;;;3.83;3.15;;;;;;;21.90;25.49;101375.34;3590455;39;20704;-61
2022/04/20 10:11:37;;;;;;;5.13;3.00;;;;;;;22.09;25.57;101376.22;3581871;39;20060;-61
2022/04/20 10:16:56;;;;;;;3.83;3.10;;;;;;;21.97;25.68;101367.38;3587211;39;20123;-61
2022/04/20 10:19:27;;;;;;;4.65;3.50;;;;;;;22.00;25.60;101370.66;3579215;39;20062;-60
2022/04/20 10:21:55;;;;;;;4.53;3.10;;;;;;;22.04;25.16;101362.97;3590296;39;20096;-62
2022/04/20 10:24:30;;;;;;;4.80;3.03;;;;;;;22.22;24.75;101358.38;3589810;39;20128;-61
2022/04/20 10:27:08;;;;;;;4.63;2.90;;;;;;;22.27;25.34;101357.94;3585739;39;20068;-61
2022/04/20 10:29:55;;;;;;;4.15;3.10;;;;;;;22.33;24.58;101361.91;3587226;39;20055;-62
2022/04/20 10:32:31;;;;;;;4.82;3.10;;;;;;;22.41;24.50;101357.34;3591711;39;20142;-62
2022/04/20 10:34:59;;;;;;;3.97;3.20;;;;;;;22.43;24.51;101362.69;3593351;39;20495;-62
2022/04/20 10:37:25;;;;;;;4.55;2.60;;;;;;;22.53;25.46;101351.63;3581380;39;20056;-61
2022/04/20 10:39:55;;;;;;;3.10;2.50;;;;;;;22.56;24.64;101352.16;3593514;39;20048;-62
2022/04/20 10:42:23;;;;;;;4.13;2.70;;;;;;;22.26;26.26;101320.59;3587727;39;20119;-61
2022/04/20 10:45:12;;;;;;;5.10;2.55;;;;;;;22.41;24.57;101346.38;3599867;39;20067;-62
2022/04/20 10:47:43;;;;;;;3.08;2.47;;;;;;;22.51;24.81;101354.50;3587273;39;20063;-62
2022/04/20 10:50:17;;;;;;;4.28;2.65;;;;;;;22.41;23.65;101348.28;3587551;39;20048;-62
2022/04/20 10:53:04;;;;;;;3.30;2.63;;;;;;;22.16;24.39;101281.50;3587311;39;20067;-62
2022/04/20 10:55:36;;;;;;;3.20;2.67;;;;;;;22.70;23.86;101340.59;3589730;39;20040;-62
2022/04/20 10:58:20;;;;;;;3.00;2.65;;;;;;;22.61;24.34;101327.00;3591716;39;20062;-63
2022/04/20 11:00:46;;;;;;;3.47;2.70;;;;;;;22.68;24.82;101341.81;3581453;39;20082;-62
2022/04/20 11:03:12;;;;;;;4.00;2.90;;;;;;;22.86;24.82;101336.25;3595041;39;20381;-62
2022/04/20 11:05:56;;;;;;;4.38;3.00;;;;;;;22.86;24.62;101342.56;3589813;39;20593;-62
2022/04/20 11:08:22;;;;;;;4.35;2.85;;;;;;;22.94;24.05;101331.69;3581053;39;20051;-62
2022/04/20 11:19:52;;;;;;;5.20;2.60;;;;;;;22.80;24.05;101320.44;3578394;39;20066;-62
2022/04/20 11:22:19;;;;;;;2.72;2.42;;;;;;;22.98;23.74;101325.91;3583204;39;20045;-61
2022/04/20 11:24:45;;;;;;;3.30;2.22;;;;;;;22.97;23.72;101294.03;3582328;39;20121;-62
2022/04/20 11:27:12;;;;;;;2.60;2.33;;;;;;;23.28;22.96;101324.47;3595366;39;20119;-60
2022/04/20 11:29:43;;;;;;;2.70;2.30;;;;;;;23.41;23.18;101322.13;3588303;39;20155;-63
2022/04/20 11:32:09;;;;;;;3.53;2.88;;;;;;;23.42;24.15;101310.13;3595997;39;20044;-61
2022/04/20 11:34:39;;;;;;;2.95;2.30;;;;;;;23.22;23.17;101312.28;3589629;39;20063;-61
2022/04/20 11:37:12;;;;;;;5.00;2.13;;;;;;;23.44;24.34;101298.97;3593855;39;20117;-62
2022/04/20 11:39:37;;;;;;;;;;;;;;;23.46;23.82;101297.78;3584396;39;20058;-62
2022/04/20 11:42:06;;;;;;;2.92;2.42;;;;;;;23.78;23.22;101299.75;3597061;39;19947;-61
2022/04/20 11:44:35;;;;;;;16.00;3.08;;;;;;;24.00;22.36;101291.88;3595217;39;20063;-62
2022/04/20 11:47:07;;;;;;;7.85;2.58;;;;;;;23.95;22.49;101302.53;3587980;39;20047;-62
2022/04/20 11:49:42;;;;;;;3.13;2.50;;;;;;;24.29;22.63;101285.84;3592020;39;20103;-63
2022/04/20 11:52:14;;;;;;;3.08;2.60;;;;;;;24.35;22.92;101284.31;3585784;39;20055;-60
2022/04/20 11:54:44;;;;;;;2.72;2.50;;;;;;;24.12;21.69;101264.94;3582614;39;20055;-60
2022/04/20 11:57:10;;;;;;;6.22;2.88;;;;;;;24.28;22.11;101290.50;3587128;39;20056;-61
2022/04/20 11:59:43;;;;;;;4.15;2.25;;;;;;;24.37;22.08;101287.75;3591951;39;20066;-61
2022/04/20 12:02:12;;;;;;;4.75;2.60;;;;;;;24.49;23.10;101286.41;3585178;39;20048;-61
2022/04/20 12:04:39;;;;;;;3.47;2.55;;;;;;;24.52;22.08;101286.91;3592499;39;20280;-61
2022/04/20 12:07:04;;;;;;;3.28;2.40;;;;;;;24.51;22.70;101278.81;3587561;39;20051;-61
2022/04/20 12:09:35;;;;;;;4.25;2.47;;;;;;;24.62;22.87;101280.34;3592971;39;20661;-61
2022/04/20 12:12:05;;;;;;;5.03;2.58;;;;;;;24.75;22.65;101276.00;3579250;39;20047;-61